Time;durP1;ratioP1;P1;durP2;ratioP2;P2;SDS_P1;SDS_P2;PMS_P1;PMS_P2;Temp;Humidity;BMP_temperature;BMP_pressure;BME280_temperature;BME280_humidity;BME280_pressure;Samples;Min_cycle;Max_cycle;Signal;HPM_P1;HPM_P2
2021/08/04 00:01:08;;;;;;;3.92;2.00;;;23.30;99.90;;;;;;4818961;29;20050;-86
2021/08/04 00:03:34;;;;;;;8.45;2.30;;;23.30;99.90;;;;;;4824198;29;20133;-80
2021/08/04 00:06:00;;;;;;;6.50;2.95;;;23.30;99.90;;;;;;4817870;29;20113;-81
2021/08/04 00:08:25;;;;;;;14.60;2.13;;;23.30;99.90;;;;;;4812563;29;20041;-85
2021/08/04 00:10:51;;;;;;;9.43;2.33;;;23.30;99.90;;;;;;4817826;29;20194;-81
2021/08/04 00:13:17;;;;;;;5.40;2.15;;;23.30;99.90;;;;;;4818596;29;20047;-82
2021/08/04 00:15:43;;;;;;;8.77;2.85;;;23.30;99.90;;;;;;4816540;29;20040;-80
2021/08/04 00:18:09;;;;;;;4.60;2.30;;;23.30;99.90;;;;;;4818790;29;20041;-83
2021/08/04 00:20:35;;;;;;;7.80;2.28;;;23.30;99.90;;;;;;4822982;29;20403;-82
2021/08/04 00:23:01;;;;;;;10.35;2.45;;;23.20;99.90;;;;;;4831249;29;20133;-85
2021/08/04 00:25:28;;;;;;;7.07;1.98;;;23.20;99.90;;;;;;4822606;29;20117;-85
2021/08/04 00:27:54;;;;;;;6.55;2.00;;;23.10;99.90;;;;;;4815425;29;20489;-84
2021/08/04 00:30:19;;;;;;;8.60;2.22;;;23.00;99.90;;;;;;4824245;29;20113;-85
2021/08/04 00:32:45;;;;;;;6.78;2.85;;;23.00;99.90;;;;;;4818624;29;20118;-85
2021/08/04 00:35:11;;;;;;;8.98;2.88;;;23.00;99.90;;;;;;4822618;29;20034;-84
2021/08/04 00:37:37;;;;;;;9.20;2.28;;;23.00;99.90;;;;;;4821764;29;20049;-85
2021/08/04 00:40:04;;;;;;;11.32;2.97;;;22.90;99.90;;;;;;4824016;29;20453;-85
2021/08/04 00:42:30;;;;;;;5.70;2.00;;;22.90;99.90;;;;;;4819606;29;20045;-86
2021/08/04 00:44:58;;;;;;;8.50;2.90;;;22.90;99.90;;;;;;4824276;29;20046;-85
2021/08/04 00:47:24;;;;;;;8.73;2.63;;;22.80;99.90;;;;;;4816470;29;20031;-84
2021/08/04 00:49:50;;;;;;;4.57;2.22;;;22.80;99.90;;;;;;4813520;29;20443;-80
2021/08/04 00:52:16;;;;;;;14.93;2.63;;;22.80;99.90;;;;;;4822442;29;20045;-84
2021/08/04 00:54:42;;;;;;;7.40;2.53;;;22.80;99.90;;;;;;4823964;29;20062;-83
2021/08/04 00:57:08;;;;;;;5.50;2.30;;;22.80;99.90;;;;;;4818439;29;20035;-80
2021/08/04 00:59:35;;;;;;;6.95;2.70;;;22.80;99.90;;;;;;4835951;29;20049;-85
2021/08/04 01:02:15;;;;;;;8.77;1.85;;;22.80;99.90;;;;;;4819228;29;20035;-82
2021/08/04 01:04:49;;;;;;;9.05;2.50;;;22.80;99.90;;;;;;4822739;29;20042;-86
2021/08/04 01:07:39;;;;;;;7.05;2.10;;;22.80;99.90;;;;;;4823736;29;20117;-85
2021/08/04 01:10:08;;;;;;;11.48;2.67;;;22.70;99.90;;;;;;4811661;29;20559;-85
2021/08/04 01:12:41;;;;;;;7.40;2.58;;;22.70;99.90;;;;;;4821712;29;20045;-85
2021/08/04 01:15:08;;;;;;;9.25;2.40;;;22.60;99.90;;;;;;4810586;29;20091;-85
2021/08/04 01:17:36;;;;;;;2.95;2.00;;;22.60;99.90;;;;;;4818282;29;20109;-79
2021/08/04 01:20:14;;;;;;;4.45;1.85;;;22.50;99.90;;;;;;4823517;29;20121;-80
2021/08/04 01:23:12;;;;;;;5.03;2.30;;;22.50;99.90;;;;;;4817617;29;20073;-82
2021/08/04 01:26:00;;;;;;;5.22;1.95;;;22.40;99.90;;;;;;4802134;29;20045;-85
2021/08/04 01:28:29;;;;;;;7.28;2.40;;;22.40;99.90;;;;;;4823589;29;20054;-80
2021/08/04 01:31:01;;;;;;;9.90;2.35;;;22.30;99.90;;;;;;4823422;29;20042;-80
2021/08/04 01:33:28;;;;;;;9.07;2.13;;;22.30;99.90;;;;;;4823324;29;20515;-80
2021/08/04 01:35:55;;;;;;;3.80;1.85;;;22.30;99.90;;;;;;4822771;29;20062;-79
2021/08/04 01:38:23;;;;;;;8.00;2.15;;;22.30;99.90;;;;;;4830200;29;20432;-84
2021/08/04 01:40:50;;;;;;;5.82;1.58;;;22.30;99.90;;;;;;4822990;29;20043;-81
2021/08/04 01:43:18;;;;;;;17.30;2.22;;;22.30;99.90;;;;;;4816709;29;20110;-81
2021/08/04 01:45:45;;;;;;;5.18;1.90;;;22.30;99.90;;;;;;4821702;29;20054;-85
2021/08/04 01:48:11;;;;;;;4.80;2.08;;;22.40;99.90;;;;;;4813426;29;20508;-80
2021/08/04 01:50:37;;;;;;;4.20;1.73;;;22.40;99.90;;;;;;4820828;29;20035;-80
2021/08/04 01:53:04;;;;;;;10.57;2.50;;;22.50;99.90;;;;;;4817760;29;20110;-83
2021/08/04 01:55:30;;;;;;;7.43;2.20;;;22.50;99.90;;;;;;4822708;29;20113;-80
2021/08/04 01:57:57;;;;;;;10.95;2.45;;;22.40;99.90;;;;;;4820863;29;20110;-84
2021/08/04 02:00:23;;;;;;;5.72;2.10;;;22.40;99.90;;;;;;4822318;29;20053;-80
2021/08/04 02:02:48;;;;;;;12.35;2.38;;;22.30;99.90;;;;;;4813516;29;20031;-82
2021/08/04 02:05:14;;;;;;;3.78;2.13;;;22.20;99.90;;;;;;4822328;29;20125;-84
2021/08/04 02:07:52;;;;;;;5.82;2.38;;;22.20;99.90;;;;;;4813569;29;20392;-84
2021/08/04 02:10:29;;;;;;;5.20;2.45;;;22.20;99.90;;;;;;4822933;29;20039;-84
2021/08/04 02:13:06;;;;;;;9.18;2.35;;;22.10;99.90;;;;;;4822511;29;20111;-85
2021/08/04 02:15:34;;;;;;;6.50;2.33;;;22.10;99.90;;;;;;4822202;29;20048;-85
2021/08/04 02:18:09;;;;;;;4.25;2.17;;;22.10;99.90;;;;;;4822457;29;20034;-82
2021/08/04 02:20:38;;;;;;;10.15;2.13;;;22.10;99.90;;;;;;4815405;29;20133;-84
2021/08/04 02:23:11;;;;;;;6.82;2.22;;;22.00;99.90;;;;;;4821543;29;20031;-84
2021/08/04 02:26:08;;;;;;;5.43;2.38;;;22.00;99.90;;;;;;4822789;29;20038;-82
2021/08/04 02:28:40;;;;;;;8.90;1.98;;;22.10;99.90;;;;;;4814452;29;20046;-81
2021/08/04 02:31:11;;;;;;;10.57;2.03;;;22.10;99.90;;;;;;4825535;29;20117;-85
2021/08/04 02:33:37;;;;;;;9.88;2.00;;;22.10;99.90;;;;;;4824171;29;20100;-84
2021/08/04 02:36:04;;;;;;;12.25;2.10;;;22.00;99.90;;;;;;4825786;29;20046;-83
2021/08/04 02:38:30;;;;;;;6.93;1.85;;;22.00;99.90;;;;;;4823717;29;20035;-84
2021/08/04 02:40:57;;;;;;;10.18;2.08;;;22.00;99.90;;;;;;4823990;29;20042;-79
2021/08/04 02:43:23;;;;;;;4.72;1.80;;;22.10;99.90;;;;;;4812514;29;20050;-80
2021/08/04 02:45:50;;;;;;;7.82;1.75;;;22.10;99.90;;;;;;4824799;29;20462;-81
2021/08/04 02:48:18;;;;;;;3.85;1.85;;;22.10;99.90;;;;;;4823086;29;20499;-80
2021/08/04 02:50:47;;;;;;;8.38;2.88;;;22.10;99.90;;;;;;4825415;29;20042;-80
2021/08/04 02:53:17;;;;;;;6.95;1.65;;;22.10;99.90;;;;;;4823260;29;20033;-84
2021/08/04 02:55:43;;;;;;;7.15;2.25;;;22.20;99.90;;;;;;4825401;29;20031;-80
2021/08/04 02:58:12;;;;;;;7.40;2.10;;;22.20;99.90;;;;;;4815333;29;20027;-85
2021/08/04 03:00:38;;;;;;;5.95;1.60;;;22.20;99.90;;;;;;4821254;29;20062;-80
2021/08/04 03:03:04;;;;;;;6.70;2.28;;;22.20;99.90;;;;;;4819313;29;20109;-85
2021/08/04 03:05:30;;;;;;;6.85;1.90;;;22.20;99.90;;;;;;4824861;29;20720;-85
2021/08/04 03:07:55;;;;;;;7.32;1.92;;;22.20;99.90;;;;;;4803163;29;20034;-85
2021/08/04 03:10:21;;;;;;;7.22;2.28;;;22.20;99.90;;;;;;4825079;29;20042;-83
2021/08/04 03:12:46;;;;;;;7.38;1.73;;;22.20;99.90;;;;;;4814669;29;20126;-85
2021/08/04 03:15:12;;;;;;;8.02;2.25;;;22.20;99.90;;;;;;4825431;29;20042;-85
2021/08/04 03:17:38;;;;;;;12.30;2.42;;;22.20;99.90;;;;;;4813154;29;20034;-86
2021/08/04 03:20:04;;;;;;;7.35;1.70;;;22.10;99.90;;;;;;4825042;29;20038;-85
2021/08/04 03:22:30;;;;;;;5.07;1.98;;;22.10;99.90;;;;;;4824322;29;20548;-86
2021/08/04 03:24:56;;;;;;;7.50;2.90;;;22.10;99.90;;;;;;4825225;29;20030;-85
2021/08/04 03:27:21;;;;;;;4.18;2.10;;;22.00;99.90;;;;;;4824568;29;20050;-86
2021/08/04 03:29:47;;;;;;;7.38;2.20;;;22.00;99.90;;;;;;4824934;29;20030;-85
2021/08/04 03:32:13;;;;;;;10.38;2.15;;;22.00;99.90;;;;;;4823993;29;20107;-85
2021/08/04 03:34:38;;;;;;;3.92;2.13;;;22.10;99.90;;;;;;4824490;29;20385;-84
2021/08/04 03:37:04;;;;;;;6.93;2.33;;;22.10;99.90;;;;;;4816903;29;20045;-85
2021/08/04 03:39:29;;;;;;;10.43;2.38;;;22.10;99.90;;;;;;4824354;29;20041;-84
2021/08/04 03:41:55;;;;;;;5.13;2.55;;;22.10;99.90;;;;;;4824256;29;20117;-84
2021/08/04 03:44:22;;;;;;;7.75;2.63;;;22.10;99.90;;;;;;4824125;29;20034;-80
2021/08/04 03:46:48;;;;;;;7.00;2.30;;;22.10;99.90;;;;;;4816798;29;20054;-81
2021/08/04 03:49:15;;;;;;;6.25;2.13;;;22.10;99.90;;;;;;4820018;29;20287;-85
2021/08/04 03:51:41;;;;;;;5.63;2.05;;;22.10;99.90;;;;;;4815327;29;20035;-81
2021/08/04 03:54:07;;;;;;;5.43;2.35;;;22.20;99.90;;;;;;4822695;29;20039;-80
2021/08/04 03:56:33;;;;;;;9.50;2.65;;;22.20;99.90;;;;;;4813757;29;20484;-81
2021/08/04 03:59:00;;;;;;;4.45;2.15;;;22.20;99.90;;;;;;4823998;29;20054;-81
2021/08/04 04:01:26;;;;;;;3.80;2.17;;;22.20;99.90;;;;;;4807555;29;20511;-80
2021/08/04 04:03:52;;;;;;;8.82;2.85;;;22.10;99.90;;;;;;4817353;29;20118;-81
2021/08/04 04:06:17;;;;;;;7.78;2.85;;;22.10;99.90;;;;;;4817452;29;20068;-80
2021/08/04 04:08:43;;;;;;;7.70;2.88;;;22.10;99.90;;;;;;4823749;29;20175;-80
2021/08/04 04:11:10;;;;;;;8.75;2.72;;;22.10;99.90;;;;;;4824028;29;20041;-79
2021/08/04 04:13:36;;;;;;;5.88;2.38;;;22.00;99.90;;;;;;4814300;29;20038;-79
2021/08/04 04:16:02;;;;;;;6.43;2.70;;;22.00;99.90;;;;;;4824142;29;20055;-84
2021/08/04 04:18:27;;;;;;;10.50;3.35;;;22.00;99.90;;;;;;4810125;29;20038;-84
2021/08/04 04:20:53;;;;;;;13.20;3.03;;;22.00;99.90;;;;;;4817112;29;20158;-85
2021/08/04 04:23:19;;;;;;;7.68;2.53;;;22.00;99.90;;;;;;4820578;29;20038;-81
2021/08/04 04:25:44;;;;;;;8.52;2.40;;;22.00;99.90;;;;;;4815309;29;20492;-82
2021/08/04 04:28:10;;;;;;;14.85;2.63;;;22.00;99.90;;;;;;4823969;29;20382;-82
2021/08/04 04:30:36;;;;;;;12.55;2.40;;;22.00;99.90;;;;;;4824091;29;20042;-84
2021/08/04 04:33:02;;;;;;;11.57;2.40;;;22.00;99.90;;;;;;4823201;29;20038;-83
2021/08/04 04:35:27;;;;;;;10.25;2.70;;;22.00;99.90;;;;;;4823296;29;20039;-85
2021/08/04 04:37:53;;;;;;;7.53;2.08;;;22.00;99.90;;;;;;4823122;29;20085;-80
2021/08/04 04:40:19;;;;;;;8.48;2.67;;;22.00;99.90;;;;;;4806810;29;20464;-78
2021/08/04 04:42:44;;;;;;;12.35;2.63;;;22.10;99.90;;;;;;4821674;29;20034;-79
2021/08/04 04:45:10;;;;;;;10.93;2.55;;;22.10;99.90;;;;;;4819104;29;20050;-83
2021/08/04 04:47:36;;;;;;;8.38;1.98;;;22.20;99.90;;;;;;4822566;29;20037;-84
2021/08/04 04:50:02;;;;;;;9.23;2.72;;;22.20;99.90;;;;;;4822348;29;20106;-84
2021/08/04 04:52:28;;;;;;;7.03;2.25;;;22.40;99.90;;;;;;4818539;29;20039;-83
2021/08/04 04:54:53;;;;;;;5.43;2.20;;;22.50;99.90;;;;;;4821172;29;20026;-77
2021/08/04 04:57:19;;;;;;;11.68;3.50;;;22.70;99.90;;;;;;4823254;29;20046;-78
2021/08/04 04:59:45;;;;;;;18.40;2.25;;;22.80;99.90;;;;;;4820659;29;20035;-78
2021/08/04 05:02:10;;;;;;;6.85;2.10;;;22.90;99.90;;;;;;4804632;29;20061;-85
2021/08/04 05:04:36;;;;;;;13.48;3.00;;;22.90;99.90;;;;;;4817538;29;20046;-78
2021/08/04 05:07:02;;;;;;;7.88;1.85;;;23.00;99.90;;;;;;4821360;29;20029;-81
2021/08/04 05:09:28;;;;;;;3.78;1.95;;;23.10;99.90;;;;;;4817083;29;20121;-78
2021/08/04 05:11:53;;;;;;;7.25;2.35;;;23.10;99.90;;;;;;4811735;29;20065;-78
2021/08/04 05:14:19;;;;;;;8.05;2.45;;;23.20;99.90;;;;;;4814205;29;20480;-79
2021/08/04 05:16:45;;;;;;;11.77;2.95;;;23.30;99.90;;;;;;4822409;29;20058;-85
2021/08/04 05:19:10;;;;;;;7.38;2.28;;;23.40;99.90;;;;;;4814917;29;20722;-85
2021/08/04 05:21:36;;;;;;;6.32;2.33;;;23.40;99.90;;;;;;4823095;29;20050;-80
2021/08/04 05:24:02;;;;;;;8.73;2.40;;;23.40;99.90;;;;;;4812962;29;20026;-83
2021/08/04 05:26:27;;;;;;;7.35;2.45;;;23.50;99.90;;;;;;4816846;29;20039;-80
2021/08/04 05:28:53;;;;;;;9.80;2.38;;;23.50;99.90;;;;;;4821500;29;20067;-81
2021/08/04 05:31:19;;;;;;;24.85;2.83;;;23.50;99.90;;;;;;4821995;29;20035;-81
2021/08/04 05:33:44;;;;;;;14.18;2.60;;;23.60;99.90;;;;;;4822763;29;20499;-79
2021/08/04 05:36:10;;;;;;;8.35;2.65;;;23.70;99.90;;;;;;4822889;29;20026;-80
2021/08/04 05:38:36;;;;;;;9.30;2.70;;;23.70;99.90;;;;;;4812952;29;20483;-80
2021/08/04 05:41:01;;;;;;;5.32;2.20;;;23.60;99.90;;;;;;4823119;29;20095;-79
2021/08/04 05:43:27;;;;;;;12.95;2.58;;;23.60;99.90;;;;;;4812507;29;20034;-78
2021/08/04 05:45:53;;;;;;;5.90;2.33;;;23.70;99.90;;;;;;4823100;29;20046;-79
2021/08/04 05:48:18;;;;;;;8.55;2.70;;;23.60;99.90;;;;;;4822076;29;20074;-80
2021/08/04 05:50:44;;;;;;;10.43;2.58;;;23.70;99.90;;;;;;4822557;29;20066;-79
2021/08/04 05:53:10;;;;;;;8.68;2.80;;;23.60;99.90;;;;;;4821151;29;20396;-80
2021/08/04 05:55:35;;;;;;;5.68;2.38;;;23.60;99.90;;;;;;4821450;29;20687;-77
2021/08/04 05:58:01;;;;;;;6.70;2.38;;;23.60;99.90;;;;;;4821287;29;20065;-79
2021/08/04 06:00:27;;;;;;;13.40;3.63;;;23.60;99.90;;;;;;4822656;29;20038;-80
2021/08/04 06:02:52;;;;;;;11.85;5.35;;;23.70;99.90;;;;;;4824599;29;20032;-77
2021/08/04 06:05:18;;;;;;;16.45;4.47;;;23.70;99.90;;;;;;4826347;29;20034;-82
2021/08/04 06:07:44;;;;;;;13.02;3.30;;;23.70;99.90;;;;;;4817928;29;20397;-78
2021/08/04 06:10:11;;;;;;;13.10;3.00;;;23.90;99.90;;;;;;4825872;29;20022;-78
2021/08/04 06:12:36;;;;;;;9.13;2.83;;;24.20;99.90;;;;;;4818747;29;20038;-79
2021/08/04 06:15:02;;;;;;;5.10;2.08;;;24.50;99.90;;;;;;4823951;29;20422;-76
2021/08/04 06:17:28;;;;;;;13.73;2.58;;;24.80;99.90;;;;;;4819762;29;20039;-83
2021/08/04 06:19:54;;;;;;;7.65;2.25;;;24.80;99.90;;;;;;4822009;29;20065;-78
2021/08/04 06:22:19;;;;;;;7.00;2.22;;;24.70;99.90;;;;;;4820854;29;20447;-77
2021/08/04 06:24:45;;;;;;;6.70;2.10;;;24.60;99.90;;;;;;4809743;29;20146;-78
2021/08/04 06:27:11;;;;;;;8.32;2.30;;;24.50;99.90;;;;;;4825814;29;20121;-78
2021/08/04 06:29:36;;;;;;;6.00;2.28;;;24.50;99.90;;;;;;4825403;29;20426;-78
2021/08/04 06:32:02;;;;;;;5.70;2.25;;;24.50;99.90;;;;;;4825656;29;20170;-77
2021/08/04 06:34:28;;;;;;;8.30;2.50;;;24.50;99.90;;;;;;4818755;29;20051;-78
2021/08/04 06:36:54;;;;;;;4.07;2.13;;;24.60;99.90;;;;;;4822211;29;20085;-77
2021/08/04 06:39:19;;;;;;;5.60;2.30;;;24.70;99.90;;;;;;4823952;29;20031;-78
2021/08/04 06:41:46;;;;;;;7.55;2.38;;;24.80;99.90;;;;;;4825719;29;20447;-78
2021/08/04 06:44:11;;;;;;;13.63;2.33;;;25.00;99.90;;;;;;4818349;29;20156;-84
2021/08/04 06:46:39;;;;;;;9.45;3.03;;;25.30;99.90;;;;;;4825043;29;20138;-86
2021/08/04 06:49:06;;;;;;;8.98;2.63;;;25.90;99.90;;;;;;4824215;29;20034;-78
2021/08/04 06:51:35;;;;;;;23.10;2.30;;;27.30;99.90;;;;;;4825258;29;20109;-80
2021/08/04 06:54:01;;;;;;;14.70;2.35;;;28.60;99.90;;;;;;4824549;29;20124;-82
2021/08/04 06:56:26;;;;;;;5.85;1.90;;;29.30;99.90;;;;;;4823597;29;20108;-77
2021/08/04 06:58:52;;;;;;;10.80;2.72;;;29.40;99.90;;;;;;4825318;29;20076;-79
2021/08/04 07:01:18;;;;;;;5.43;2.17;;;30.50;99.90;;;;;;4805458;29;20538;-80
2021/08/04 07:03:44;;;;;;;8.45;2.15;;;31.40;99.90;;;;;;4818987;29;20034;-79
2021/08/04 07:06:10;;;;;;;7.10;2.15;;;32.10;99.90;;;;;;4824357;29;20069;-81
2021/08/04 07:08:37;;;;;;;9.65;2.00;;;32.90;99.90;;;;;;4824998;29;20027;-77
2021/08/04 07:11:03;;;;;;;4.55;1.55;;;33.90;99.90;;;;;;4823789;29;20041;-76
2021/08/04 07:13:29;;;;;;;6.80;1.90;;;34.60;98.10;;;;;;4824250;29;20178;-81
2021/08/04 07:15:54;;;;;;;16.58;3.05;;;35.20;97.40;;;;;;4819607;29;20106;-80
2021/08/04 07:18:20;;;;;;;7.10;1.73;;;34.80;96.70;;;;;;4823655;29;20066;-83
2021/08/04 07:20:47;;;;;;;5.60;1.85;;;33.20;97.80;;;;;;4809845;29;20097;-79
2021/08/04 07:23:12;;;;;;;7.10;2.05;;;32.20;99.00;;;;;;4834977;29;20030;-77
2021/08/04 07:25:38;;;;;;;6.25;1.98;;;31.10;99.90;;;;;;4823818;29;20160;-76
2021/08/04 07:28:04;;;;;;;4.80;1.95;;;30.50;99.90;;;;;;4823714;29;20031;-77
2021/08/04 07:30:30;;;;;;;8.85;2.38;;;29.90;99.90;;;;;;4814696;29;20034;-76
2021/08/04 07:32:56;;;;;;;48.65;4.75;;;29.10;99.90;;;;;;4804791;29;20618;-80
2021/08/04 07:35:22;;;;;;;9.88;2.38;;;29.70;99.90;;;;;;4823978;29;20045;-78
2021/08/04 07:37:48;;;;;;;7.15;2.22;;;30.60;99.90;;;;;;4823409;29;20087;-77
2021/08/04 07:40:16;;;;;;;9.82;2.30;;;30.70;99.90;;;;;;4822701;29;20038;-76
2021/08/04 07:42:42;;;;;;;5.95;1.77;;;30.40;99.90;;;;;;4822533;29;20405;-79
2021/08/04 07:45:09;;;;;;;9.15;1.83;;;30.40;99.90;;;;;;4823298;29;20114;-77
2021/08/04 07:47:35;;;;;;;7.68;2.15;;;31.00;99.90;;;;;;4822122;29;20054;-79
2021/08/04 07:50:01;;;;;;;6.45;1.60;;;32.00;99.90;;;;;;4822180;29;20488;-76
2021/08/04 07:52:27;;;;;;;11.30;2.65;;;32.80;99.90;;;;;;4823626;29;20101;-78
2021/08/04 07:54:52;;;;;;;8.20;1.73;;;33.20;99.80;;;;;;4823244;29;20040;-83
2021/08/04 07:57:18;;;;;;;5.05;1.83;;;33.50;99.90;;;;;;4822385;29;20538;-77
2021/08/04 07:59:44;;;;;;;10.65;1.80;;;33.50;99.70;;;;;;4823022;29;20393;-78
2021/08/04 08:02:09;;;;;;;8.85;2.10;;;33.10;99.90;;;;;;4823826;29;20065;-81
2021/08/04 08:04:36;;;;;;;33.65;3.47;;;32.90;99.70;;;;;;4823576;29;20095;-76
2021/08/04 08:07:01;;;;;;;33.95;3.42;;;33.20;99.90;;;;;;4823414;29;20038;-77
2021/08/04 08:09:27;;;;;;;20.83;3.60;;;33.50;99.50;;;;;;4824040;29;20033;-79
2021/08/04 08:11:58;;;;;;;23.50;3.58;;;33.50;99.40;;;;;;4823917;29;20058;-78
2021/08/04 08:14:25;;;;;;;5.20;2.05;;;33.80;99.20;;;;;;4822097;29;20091;-75
2021/08/04 08:16:51;;;;;;;9.05;2.13;;;34.00;98.50;;;;;;4823760;29;20030;-75
2021/08/04 08:19:17;;;;;;;5.07;1.98;;;33.80;98.60;;;;;;4822726;29;20480;-85
2021/08/04 08:21:43;;;;;;;10.57;2.17;;;33.40;99.00;;;;;;4823478;29;20038;-82
2021/08/04 08:24:08;;;;;;;3.92;1.77;;;32.80;98.90;;;;;;4823516;29;20096;-77
2021/08/04 08:26:36;;;;;;;9.50;2.45;;;32.50;98.80;;;;;;4823392;29;20468;-82
2021/08/04 08:29:02;;;;;;;7.30;2.45;;;31.70;99.60;;;;;;4823256;29;20069;-82
2021/08/04 08:31:28;;;;;;;3.13;1.58;;;31.00;99.90;;;;;;4822306;29;20038;-81
2021/08/04 08:33:54;;;;;;;6.65;1.95;;;31.00;99.90;;;;;;4823538;29;20428;-75
2021/08/04 08:36:19;;;;;;;6.72;1.60;;;31.00;99.90;;;;;;4823278;29;20034;-78
2021/08/04 08:38:45;;;;;;;4.95;1.90;;;30.90;99.90;;;;;;4822740;29;20117;-74
2021/08/04 08:41:11;;;;;;;10.57;2.20;;;30.80;99.90;;;;;;4823399;29;20564;-75
2021/08/04 08:43:36;;;;;;;8.13;2.33;;;30.50;99.90;;;;;;4823462;29;20038;-76
2021/08/04 08:46:05;;;;;;;7.68;2.10;;;30.00;99.90;;;;;;4822863;29;20075;-80
2021/08/04 08:48:31;;;;;;;12.10;2.25;;;29.80;99.90;;;;;;4823283;29;20117;-80
2021/08/04 08:50:57;;;;;;;3.35;1.77;;;29.80;99.90;;;;;;4822918;29;20125;-77
2021/08/04 08:53:23;;;;;;;8.55;2.13;;;29.80;99.90;;;;;;4823240;29;20041;-75
2021/08/04 08:55:49;;;;;;;7.47;2.10;;;29.90;99.90;;;;;;4822384;29;20039;-75
2021/08/04 08:58:16;;;;;;;9.32;2.40;;;29.90;99.90;;;;;;4823531;29;20030;-75
2021/08/04 09:00:42;;;;;;;4.85;1.80;;;29.90;99.90;;;;;;4823628;29;20077;-75
2021/08/04 09:03:07;;;;;;;6.10;1.90;;;29.90;99.90;;;;;;4823501;29;20087;-75
2021/08/04 09:05:50;;;;;;;7.18;2.10;;;29.70;99.90;;;;;;4823097;29;20392;-75
2021/08/04 09:08:26;;;;;;;4.78;1.80;;;29.90;99.90;;;;;;4822235;29;20481;-75
2021/08/04 09:10:52;;;;;;;7.60;2.10;;;29.90;99.90;;;;;;4823106;29;20046;-75
2021/08/04 09:13:28;;;;;;;7.78;2.42;;;30.00;99.90;;;;;;4822829;29;20567;-78
2021/08/04 09:16:10;;;;;;;9.45;2.50;;;29.70;99.90;;;;;;4823143;29;20065;-78
2021/08/04 09:18:47;;;;;;;9.00;2.40;;;29.80;99.90;;;;;;4822600;29;20046;-77
2021/08/04 09:21:16;;;;;;;8.10;2.53;;;30.10;99.90;;;;;;4813362;29;20404;-76
2021/08/04 09:23:47;;;;;;;6.35;2.03;;;30.20;99.90;;;;;;4823358;29;20052;-76
2021/08/04 09:26:15;;;;;;;9.80;2.38;;;30.20;99.90;;;;;;4823224;29;20133;-77
2021/08/04 09:29:11;;;;;;;9.13;2.35;;;30.10;99.90;;;;;;4822931;29;20031;-74
2021/08/04 09:31:40;;;;;;;11.50;2.17;;;30.00;99.90;;;;;;4811354;29;20048;-74
2021/08/04 09:34:28;;;;;;;5.97;1.92;;;30.10;99.90;;;;;;4819850;29;20042;-79
2021/08/04 09:37:11;;;;;;;8.55;2.03;;;30.10;99.90;;;;;;4822041;29;20388;-77
2021/08/04 09:39:58;;;;;;;6.78;2.13;;;30.30;99.90;;;;;;4825975;29;20403;-77
2021/08/04 09:42:51;;;;;;;7.18;2.15;;;30.40;99.90;;;;;;4823096;29;20474;-76
2021/08/04 09:45:20;;;;;;;9.93;2.28;;;30.50;99.90;;;;;;4821996;29;20134;-79
2021/08/04 09:48:05;;;;;;;7.80;2.55;;;30.60;99.90;;;;;;4825704;29;20412;-74
2021/08/04 09:50:43;;;;;;;6.85;2.03;;;30.70;99.90;;;;;;4824226;29;20045;-79
2021/08/04 09:53:09;;;;;;;7.53;1.75;;;30.50;99.90;;;;;;4825743;29;20477;-75
2021/08/04 09:55:34;;;;;;;5.85;2.17;;;30.40;99.90;;;;;;4825252;29;20053;-76
2021/08/04 09:58:02;;;;;;;4.93;1.92;;;30.30;99.90;;;;;;4824093;29;20035;-76
2021/08/04 10:00:28;;;;;;;11.82;2.60;;;30.20;99.90;;;;;;4825493;29;20063;-76
2021/08/04 10:02:54;;;;;;;4.50;2.17;;;30.00;99.90;;;;;;4825574;29;20535;-77
2021/08/04 10:05:21;;;;;;;5.32;1.80;;;30.00;99.90;;;;;;4825802;29;20117;-77
2021/08/04 10:08:01;;;;;;;8.85;2.30;;;30.00;99.90;;;;;;4825345;29;20035;-76
2021/08/04 10:10:30;;;;;;;10.20;2.13;;;30.10;99.90;;;;;;4839053;29;20046;-78
2021/08/04 10:12:57;;;;;;;6.00;2.15;;;30.40;99.90;;;;;;4825323;29;20396;-76
2021/08/04 10:15:24;;;;;;;6.22;2.33;;;30.50;99.90;;;;;;4825612;29;20037;-76
2021/08/04 10:17:51;;;;;;;5.03;1.60;;;30.60;99.90;;;;;;4825374;29;20030;-76
2021/08/04 10:20:17;;;;;;;3.60;1.83;;;30.50;99.50;;;;;;4825120;29;20705;-77
2021/08/04 10:22:43;;;;;;;10.60;2.05;;;30.30;99.40;;;;;;4824592;29;20039;-76
2021/08/04 10:25:09;;;;;;;5.75;2.08;;;30.40;99.90;;;;;;4825284;29;20065;-76
2021/08/04 10:27:35;;;;;;;13.40;2.47;;;30.40;99.90;;;;;;4809070;29;20042;-77
2021/08/04 10:30:02;;;;;;;5.65;2.10;;;30.50;99.90;;;;;;4839039;29;20042;-77
2021/08/04 10:32:29;;;;;;;4.43;2.08;;;30.60;99.50;;;;;;4824546;29;20030;-76
2021/08/04 10:34:57;;;;;;;8.55;2.30;;;30.60;99.70;;;;;;4825203;29;20042;-75
2021/08/04 10:37:24;;;;;;;3.83;1.70;;;30.60;99.70;;;;;;4824946;29;20046;-75
2021/08/04 10:39:51;;;;;;;6.53;2.13;;;30.70;99.20;;;;;;4824453;29;20445;-77
2021/08/04 10:42:16;;;;;;;9.23;2.17;;;30.60;98.60;;;;;;4824485;29;20062;-76
2021/08/04 10:44:44;;;;;;;11.30;2.22;;;30.50;98.70;;;;;;4824402;29;20089;-75
2021/08/04 10:47:26;;;;;;;6.35;1.77;;;30.40;98.80;;;;;;4823929;29;20066;-78
2021/08/04 10:50:12;;;;;;;12.57;2.28;;;30.50;99.10;;;;;;4823665;29;20035;-75
2021/08/04 10:52:57;;;;;;;7.30;2.83;;;30.60;98.00;;;;;;4822506;29;20175;-78
2021/08/04 10:55:28;;;;;;;3.10;2.05;;;30.70;98.40;;;;;;4820819;29;20099;-77
2021/08/04 10:58:11;;;;;;;5.00;2.30;;;30.80;98.10;;;;;;4824867;29;20046;-76
2021/08/04 11:00:38;;;;;;;6.75;1.90;;;30.80;98.20;;;;;;4824226;29;20074;-75
2021/08/04 11:03:41;;;;;;;6.35;1.90;;;30.80;98.60;;;;;;4801832;29;20095;-76
2021/08/04 11:06:10;;;;;;;11.88;2.45;;;30.90;99.10;;;;;;4824332;29;20033;-75
2021/08/04 11:08:36;;;;;;;8.88;2.28;;;31.10;98.80;;;;;;4808412;29;20618;-74
2021/08/04 11:11:01;;;;;;;7.82;2.17;;;31.30;97.80;;;;;;4823979;29;20034;-73
2021/08/04 11:13:45;;;;;;;4.45;1.98;;;31.40;98.00;;;;;;4815009;29;20038;-75
2021/08/04 11:16:32;;;;;;;6.22;2.05;;;31.30;97.90;;;;;;4823977;29;20063;-75
2021/08/04 11:19:10;;;;;;;3.75;1.73;;;31.30;98.60;;;;;;4824137;29;20378;-75
2021/08/04 11:21:37;;;;;;;19.13;2.28;;;31.20;98.70;;;;;;4816717;29;20497;-75
2021/08/04 11:24:06;;;;;;;6.57;2.22;;;31.00;99.20;;;;;;4823987;29;20552;-76
2021/08/04 11:26:36;;;;;;;6.15;2.55;;;30.70;99.40;;;;;;4824163;29;20038;-75
2021/08/04 11:29:02;;;;;;;6.35;2.28;;;30.50;99.50;;;;;;4824117;29;20427;-75
2021/08/04 11:31:27;;;;;;;5.53;1.88;;;30.50;99.40;;;;;;4823310;29;20034;-75
2021/08/04 11:33:55;;;;;;;3.80;2.20;;;30.40;99.20;;;;;;4820360;29;20043;-75
2021/08/04 11:36:29;;;;;;;7.13;2.22;;;30.30;99.00;;;;;;4822960;29;20075;-76
2021/08/04 11:39:01;;;;;;;3.08;2.10;;;30.10;98.80;;;;;;4823473;29;20050;-76
2021/08/04 11:41:26;;;;;;;;;;;30.00;99.20;;;;;;4821743;29;20054;-75
2021/08/04 11:43:59;;;;;;;6.38;1.98;;;30.00;99.50;;;;;;4822565;29;20439;-75
2021/08/04 11:46:47;;;;;;;14.15;2.28;;;30.00;99.60;;;;;;4822448;29;20061;-75
2021/08/04 11:49:18;;;;;;;3.63;2.20;;;30.00;99.20;;;;;;4821753;29;20042;-75
2021/08/04 11:51:50;;;;;;;2.63;1.90;;;30.10;98.80;;;;;;4820911;29;20031;-77
2021/08/04 11:54:33;;;;;;;4.10;1.90;;;30.20;97.40;;;;;;4822134;29;20046;-76
2021/08/04 11:57:00;;;;;;;8.48;2.42;;;30.10;97.20;;;;;;4821807;29;20366;-74
2021/08/04 11:59:25;;;;;;;11.70;2.05;;;30.10;96.60;;;;;;4820880;29;20702;-76
2021/08/04 12:01:54;;;;;;;10.30;2.58;;;30.20;96.90;;;;;;4820502;29;20054;-75
2021/08/04 12:04:20;;;;;;;5.00;2.15;;;30.30;96.50;;;;;;4822524;29;20038;-75
2021/08/04 12:06:56;;;;;;;9.80;2.38;;;30.30;94.60;;;;;;4822814;29;20038;-75
2021/08/04 12:09:28;;;;;;;4.55;2.17;;;30.40;94.20;;;;;;4822013;29;20132;-76
2021/08/04 12:11:56;;;;;;;3.92;1.90;;;30.40;93.40;;;;;;4823256;29;20698;-77
2021/08/04 12:14:21;;;;;;;7.53;2.10;;;30.30;92.80;;;;;;4823508;29;20030;-75
2021/08/04 12:16:54;;;;;;;4.10;1.85;;;30.30;93.00;;;;;;4806913;29;20045;-76
2021/08/04 12:19:26;;;;;;;6.35;1.90;;;30.40;92.30;;;;;;4823717;29;20046;-76
2021/08/04 12:21:51;;;;;;;7.38;2.60;;;30.40;92.00;;;;;;4823559;29;20043;-75
2021/08/04 12:24:17;;;;;;;6.25;2.25;;;30.40;92.50;;;;;;4823648;29;20476;-75
2021/08/04 12:26:45;;;;;;;4.70;1.90;;;30.30;92.70;;;;;;4822056;29;20564;-75
2021/08/04 12:29:26;;;;;;;12.52;2.15;;;30.30;93.40;;;;;;4823529;29;20045;-75
2021/08/04 12:32:16;;;;;;;6.43;2.17;;;30.50;93.30;;;;;;4822348;29;20520;-75
2021/08/04 12:34:59;;;;;;;8.32;2.40;;;30.70;92.20;;;;;;4819798;29;20050;-77
2021/08/04 12:37:25;;;;;;;6.68;1.88;;;30.80;92.00;;;;;;4816602;29;20133;-78
2021/08/04 12:39:53;;;;;;;2.08;1.63;;;30.80;91.80;;;;;;4821818;29;20038;-77
2021/08/04 12:42:20;;;;;;;4.30;1.92;;;30.80;92.20;;;;;;4821872;29;20050;-77
2021/08/04 12:44:46;;;;;;;3.78;1.80;;;30.90;91.30;;;;;;4821947;29;20474;-76
2021/08/04 12:47:14;;;;;;;12.43;2.03;;;30.70;91.00;;;;;;4819044;29;20038;-76
2021/08/04 12:49:41;;;;;;;7.10;2.50;;;30.80;91.00;;;;;;4822363;29;20631;-76
2021/08/04 12:52:07;;;;;;;3.35;1.83;;;30.80;91.90;;;;;;4820721;29;20541;-75